Terminal Aerodrome Forecast
Issued by NWS

Home | Current Version | Previous Version | Text Only | Print | Product List | Glossary On
Versions: 1 2 3 4 5 6 7 8 9 10 11 12 13 14 15 16 17 18 19 20 21 22 23 24 25 26
000
FTUS43 KDMX 271728
TAFOTM
TAF
KOTM 271728Z 2718/2818 07006KT P6SM VCSH FEW060 BKN120
     FM271900 10006KT P6SM SCT070 BKN120
     FM281200 12007KT 5SM -RA VCTS SCT030CB BKN050=

USA.gov is the U.S. government's official web portal to all federal, state and local government web resources and services.